sensor_id;sensor_type;location;lat;lon;timestamp;P1;durP1;ratioP1;P2;durP2;ratioP2
68985;SDS011;56035;37.534;-122.308;2023-03-23T00:01:48;3.53;;;1.00;;
68985;SDS011;56035;37.534;-122.308;2023-03-23T00:05:13;4.78;;;0.90;;
68985;SDS011;56035;37.534;-122.308;2023-03-23T00:08:42;1.83;;;0.63;;
68985;SDS011;56035;37.534;-122.308;2023-03-23T00:12:07;3.95;;;0.90;;
68985;SDS011;56035;37.534;-122.308;2023-03-23T00:15:33;3.40;;;1.00;;
68985;SDS011;56035;37.534;-122.308;2023-03-23T00:18:59;4.30;;;1.27;;
68985;SDS011;56035;37.534;-122.308;2023-03-23T00:22:26;4.40;;;1.20;;
68985;SDS011;56035;37.534;-122.308;2023-03-23T00:25:53;3.67;;;0.93;;
68985;SDS011;56035;37.534;-122.308;2023-03-23T00:29:19;3.43;;;0.90;;
68985;SDS011;56035;37.534;-122.308;2023-03-23T00:32:46;3.10;;;1.07;;
68985;SDS011;56035;37.534;-122.308;2023-03-23T00:36:12;3.37;;;1.00;;
68985;SDS011;56035;37.534;-122.308;2023-03-23T00:39:37;4.40;;;0.90;;
68985;SDS011;56035;37.534;-122.308;2023-03-23T00:43:02;3.30;;;1.10;;
68985;SDS011;56035;37.534;-122.308;2023-03-23T00:46:28;2.30;;;0.83;;
68985;SDS011;56035;37.534;-122.308;2023-03-23T00:49:53;3.93;;;1.40;;
68985;SDS011;56035;37.534;-122.308;2023-03-23T00:53:18;3.33;;;0.73;;
68985;SDS011;56035;37.534;-122.308;2023-03-23T00:56:43;4.53;;;1.00;;
68985;SDS011;56035;37.534;-122.308;2023-03-23T01:00:08;5.93;;;1.30;;
68985;SDS011;56035;37.534;-122.308;2023-03-23T01:03:33;4.17;;;1.00;;
68985;SDS011;56035;37.534;-122.308;2023-03-23T01:07:02;6.90;;;1.23;;
68985;SDS011;56035;37.534;-122.308;2023-03-23T01:10:28;4.27;;;0.80;;
68985;SDS011;56035;37.534;-122.308;2023-03-23T01:13:53;3.57;;;1.10;;
68985;SDS011;56035;37.534;-122.308;2023-03-23T01:17:17;3.47;;;1.07;;
68985;SDS011;56035;37.534;-122.308;2023-03-23T01:20:42;4.87;;;0.87;;
68985;SDS011;56035;37.534;-122.308;2023-03-23T01:24:07;3.50;;;0.90;;
68985;SDS011;56035;37.534;-122.308;2023-03-23T01:27:33;4.87;;;1.00;;
68985;SDS011;56035;37.534;-122.308;2023-03-23T01:30:59;9.57;;;1.07;;
68985;SDS011;56035;37.534;-122.308;2023-03-23T01:34:24;5.10;;;1.37;;
68985;SDS011;56035;37.534;-122.308;2023-03-23T01:37:49;5.37;;;1.27;;
68985;SDS011;56035;37.534;-122.308;2023-03-23T01:41:15;7.07;;;1.87;;
68985;SDS011;56035;37.534;-122.308;2023-03-23T01:48:13;10.03;;;1.97;;
68985;SDS011;56035;37.534;-122.308;2023-03-23T01:51:55;11.00;;;2.17;;
68985;SDS011;56035;37.534;-122.308;2023-03-23T01:55:22;11.67;;;2.87;;
68985;SDS011;56035;37.534;-122.308;2023-03-23T01:58:52;17.23;;;2.20;;
68985;SDS011;56035;37.534;-122.308;2023-03-23T02:02:18;14.70;;;3.20;;
68985;SDS011;56035;37.534;-122.308;2023-03-23T02:05:45;15.80;;;3.03;;
68985;SDS011;56035;37.534;-122.308;2023-03-23T02:09:11;25.23;;;4.07;;
68985;SDS011;56035;37.534;-122.308;2023-03-23T02:12:36;21.00;;;3.90;;
68985;SDS011;56035;37.534;-122.308;2023-03-23T02:16:04;23.17;;;4.53;;
68985;SDS011;56035;37.534;-122.308;2023-03-23T02:23:21;23.43;;;3.87;;
68985;SDS011;56035;37.534;-122.308;2023-03-23T02:27:00;17.50;;;3.73;;
68985;SDS011;56035;37.534;-122.308;2023-03-23T02:34:45;20.87;;;2.73;;
68985;SDS011;56035;37.534;-122.308;2023-03-23T02:38:30;17.00;;;3.90;;
68985;SDS011;56035;37.534;-122.308;2023-03-23T02:42:04;18.40;;;3.80;;
68985;SDS011;56035;37.534;-122.308;2023-03-23T02:45:32;21.87;;;4.37;;
68985;SDS011;56035;37.534;-122.308;2023-03-23T02:49:00;17.17;;;4.20;;
68985;SDS011;56035;37.534;-122.308;2023-03-23T02:52:27;22.13;;;5.57;;
68985;SDS011;56035;37.534;-122.308;2023-03-23T02:55:55;26.43;;;4.90;;
68985;SDS011;56035;37.534;-122.308;2023-03-23T02:59:22;24.37;;;5.67;;
68985;SDS011;56035;37.534;-122.308;2023-03-23T03:02:48;21.33;;;4.80;;
68985;SDS011;56035;37.534;-122.308;2023-03-23T03:06:17;22.20;;;5.47;;
68985;SDS011;56035;37.534;-122.308;2023-03-23T03:09:50;21.20;;;5.53;;
68985;SDS011;56035;37.534;-122.308;2023-03-23T03:16:53;24.70;;;4.90;;
68985;SDS011;56035;37.534;-122.308;2023-03-23T03:20:43;26.33;;;6.67;;
68985;SDS011;56035;37.534;-122.308;2023-03-23T03:24:13;24.50;;;6.67;;
68985;SDS011;56035;37.534;-122.308;2023-03-23T03:27:43;30.93;;;7.17;;
68985;SDS011;56035;37.534;-122.308;2023-03-23T03:31:13;26.63;;;4.83;;
68985;SDS011;56035;37.534;-122.308;2023-03-23T03:34:43;23.13;;;4.53;;
68985;SDS011;56035;37.534;-122.308;2023-03-23T03:38:09;23.30;;;3.90;;
68985;SDS011;56035;37.534;-122.308;2023-03-23T03:41:36;21.70;;;4.67;;
68985;SDS011;56035;37.534;-122.308;2023-03-23T03:45:01;28.30;;;6.17;;
68985;SDS011;56035;37.534;-122.308;2023-03-23T03:48:25;29.67;;;9.43;;
68985;SDS011;56035;37.534;-122.308;2023-03-23T03:51:51;30.50;;;6.53;;
68985;SDS011;56035;37.534;-122.308;2023-03-23T03:55:15;21.03;;;5.87;;
68985;SDS011;56035;37.534;-122.308;2023-03-23T03:58:41;28.67;;;7.83;;
68985;SDS011;56035;37.534;-122.308;2023-03-23T04:02:06;35.80;;;10.87;;
68985;SDS011;56035;37.534;-122.308;2023-03-23T04:05:31;23.60;;;6.07;;
68985;SDS011;56035;37.534;-122.308;2023-03-23T04:08:58;35.30;;;8.60;;
68985;SDS011;56035;37.534;-122.308;2023-03-23T04:12:23;29.70;;;5.10;;
68985;SDS011;56035;37.534;-122.308;2023-03-23T04:15:48;29.70;;;9.57;;
68985;SDS011;56035;37.534;-122.308;2023-03-23T04:19:13;26.97;;;8.60;;
68985;SDS011;56035;37.534;-122.308;2023-03-23T04:22:46;23.45;;;6.50;;
68985;SDS011;56035;37.534;-122.308;2023-03-23T04:26:11;20.63;;;3.90;;
68985;SDS011;56035;37.534;-122.308;2023-03-23T04:29:38;21.73;;;4.93;;
68985;SDS011;56035;37.534;-122.308;2023-03-23T04:33:03;23.03;;;5.27;;
68985;SDS011;56035;37.534;-122.308;2023-03-23T04:36:29;26.97;;;5.37;;
68985;SDS011;56035;37.534;-122.308;2023-03-23T04:39:59;20.45;;;5.88;;
68985;SDS011;56035;37.534;-122.308;2023-03-23T04:43:27;25.23;;;6.00;;
68985;SDS011;56035;37.534;-122.308;2023-03-23T04:46:53;17.40;;;6.07;;
68985;SDS011;56035;37.534;-122.308;2023-03-23T04:50:24;15.63;;;4.50;;
68985;SDS011;56035;37.534;-122.308;2023-03-23T04:53:49;23.80;;;5.43;;
68985;SDS011;56035;37.534;-122.308;2023-03-23T04:57:14;22.10;;;5.53;;
68985;SDS011;56035;37.534;-122.308;2023-03-23T05:00:39;15.63;;;4.00;;
68985;SDS011;56035;37.534;-122.308;2023-03-23T05:07:40;17.90;;;4.70;;
68985;SDS011;56035;37.534;-122.308;2023-03-23T05:11:05;15.40;;;3.90;;
68985;SDS011;56035;37.534;-122.308;2023-03-23T05:14:31;21.60;;;4.53;;
68985;SDS011;56035;37.534;-122.308;2023-03-23T05:17:56;18.00;;;3.80;;
68985;SDS011;56035;37.534;-122.308;2023-03-23T05:21:22;15.73;;;3.23;;
68985;SDS011;56035;37.534;-122.308;2023-03-23T05:24:48;17.70;;;3.80;;
68985;SDS011;56035;37.534;-122.308;2023-03-23T05:28:20;11.43;;;3.53;;
68985;SDS011;56035;37.534;-122.308;2023-03-23T05:31:45;12.00;;;3.73;;
68985;SDS011;56035;37.534;-122.308;2023-03-23T05:35:10;13.63;;;3.93;;
68985;SDS011;56035;37.534;-122.308;2023-03-23T05:38:39;16.77;;;3.77;;
68985;SDS011;56035;37.534;-122.308;2023-03-23T05:42:05;16.83;;;4.00;;
68985;SDS011;56035;37.534;-122.308;2023-03-23T05:45:30;15.30;;;3.60;;
68985;SDS011;56035;37.534;-122.308;2023-03-23T05:48:55;18.53;;;3.73;;
68985;SDS011;56035;37.534;-122.308;2023-03-23T05:52:20;16.07;;;3.87;;
68985;SDS011;56035;37.534;-122.308;2023-03-23T05:55:44;13.63;;;3.07;;
68985;SDS011;56035;37.534;-122.308;2023-03-23T05:59:09;11.17;;;3.10;;
68985;SDS011;56035;37.534;-122.308;2023-03-23T06:02:46;17.60;;;4.20;;
68985;SDS011;56035;37.534;-122.308;2023-03-23T06:06:11;12.03;;;2.50;;
68985;SDS011;56035;37.534;-122.308;2023-03-23T06:09:39;14.87;;;2.60;;
68985;SDS011;56035;37.534;-122.308;2023-03-23T06:13:04;18.13;;;3.80;;
68985;SDS011;56035;37.534;-122.308;2023-03-23T06:16:29;13.17;;;3.00;;
68985;SDS011;56035;37.534;-122.308;2023-03-23T06:19:54;9.43;;;3.33;;
68985;SDS011;56035;37.534;-122.308;2023-03-23T06:23:19;15.40;;;3.80;;
68985;SDS011;56035;37.534;-122.308;2023-03-23T06:26:43;12.13;;;2.77;;
68985;SDS011;56035;37.534;-122.308;2023-03-23T06:30:09;11.77;;;2.93;;
68985;SDS011;56035;37.534;-122.308;2023-03-23T06:33:38;12.83;;;2.97;;
68985;SDS011;56035;37.534;-122.308;2023-03-23T06:37:02;10.77;;;3.27;;
68985;SDS011;56035;37.534;-122.308;2023-03-23T06:40:28;13.40;;;3.20;;
68985;SDS011;56035;37.534;-122.308;2023-03-23T06:43:53;12.23;;;3.40;;
68985;SDS011;56035;37.534;-122.308;2023-03-23T06:47:21;17.07;;;3.87;;
68985;SDS011;56035;37.534;-122.308;2023-03-23T06:50:46;12.40;;;3.40;;
68985;SDS011;56035;37.534;-122.308;2023-03-23T06:54:11;14.80;;;3.50;;
68985;SDS011;56035;37.534;-122.308;2023-03-23T06:57:36;10.97;;;3.10;;
68985;SDS011;56035;37.534;-122.308;2023-03-23T07:01:01;15.07;;;3.97;;
68985;SDS011;56035;37.534;-122.308;2023-03-23T07:04:26;12.50;;;3.13;;
68985;SDS011;56035;37.534;-122.308;2023-03-23T07:07:51;15.37;;;2.93;;
68985;SDS011;56035;37.534;-122.308;2023-03-23T07:11:16;13.67;;;3.07;;
68985;SDS011;56035;37.534;-122.308;2023-03-23T07:14:41;11.77;;;2.87;;
68985;SDS011;56035;37.534;-122.308;2023-03-23T07:18:06;13.90;;;3.37;;
68985;SDS011;56035;37.534;-122.308;2023-03-23T07:21:30;9.37;;;2.70;;
68985;SDS011;56035;37.534;-122.308;2023-03-23T07:24:55;7.70;;;2.17;;
68985;SDS011;56035;37.534;-122.308;2023-03-23T07:28:21;8.80;;;2.53;;
68985;SDS011;56035;37.534;-122.308;2023-03-23T07:31:46;15.63;;;2.47;;
68985;SDS011;56035;37.534;-122.308;2023-03-23T07:35:11;13.20;;;2.33;;
68985;SDS011;56035;37.534;-122.308;2023-03-23T07:38:36;18.30;;;2.97;;
68985;SDS011;56035;37.534;-122.308;2023-03-23T07:42:01;11.23;;;2.40;;
68985;SDS011;56035;37.534;-122.308;2023-03-23T07:45:26;11.10;;;2.47;;
68985;SDS011;56035;37.534;-122.308;2023-03-23T07:48:51;11.77;;;2.30;;
68985;SDS011;56035;37.534;-122.308;2023-03-23T07:52:16;8.30;;;1.80;;
68985;SDS011;56035;37.534;-122.308;2023-03-23T07:55:40;8.57;;;2.17;;
68985;SDS011;56035;37.534;-122.308;2023-03-23T07:59:06;10.13;;;2.87;;
68985;SDS011;56035;37.534;-122.308;2023-03-23T08:02:47;10.20;;;2.70;;
68985;SDS011;56035;37.534;-122.308;2023-03-23T08:06:12;11.83;;;2.63;;
68985;SDS011;56035;37.534;-122.308;2023-03-23T08:09:38;13.80;;;2.33;;
68985;SDS011;56035;37.534;-122.308;2023-03-23T08:13:02;11.73;;;2.60;;
68985;SDS011;56035;37.534;-122.308;2023-03-23T08:16:27;11.87;;;1.83;;
68985;SDS011;56035;37.534;-122.308;2023-03-23T08:19:52;18.00;;;2.33;;
68985;SDS011;56035;37.534;-122.308;2023-03-23T08:23:19;11.33;;;2.37;;
68985;SDS011;56035;37.534;-122.308;2023-03-23T08:26:44;9.47;;;1.90;;
68985;SDS011;56035;37.534;-122.308;2023-03-23T08:30:10;10.27;;;2.27;;
68985;SDS011;56035;37.534;-122.308;2023-03-23T08:33:37;11.43;;;2.50;;
68985;SDS011;56035;37.534;-122.308;2023-03-23T08:37:02;10.87;;;2.50;;
68985;SDS011;56035;37.534;-122.308;2023-03-23T08:40:27;7.33;;;1.80;;
68985;SDS011;56035;37.534;-122.308;2023-03-23T08:43:52;6.47;;;2.00;;
68985;SDS011;56035;37.534;-122.308;2023-03-23T08:47:17;16.17;;;2.83;;
68985;SDS011;56035;37.534;-122.308;2023-03-23T08:50:42;11.83;;;2.27;;
68985;SDS011;56035;37.534;-122.308;2023-03-23T08:54:07;9.63;;;2.33;;
68985;SDS011;56035;37.534;-122.308;2023-03-23T08:57:34;10.30;;;1.90;;
68985;SDS011;56035;37.534;-122.308;2023-03-23T09:01:00;11.87;;;2.07;;
68985;SDS011;56035;37.534;-122.308;2023-03-23T09:04:25;14.90;;;2.30;;
68985;SDS011;56035;37.534;-122.308;2023-03-23T09:07:53;11.13;;;1.97;;
68985;SDS011;56035;37.534;-122.308;2023-03-23T09:11:20;8.33;;;1.57;;
68985;SDS011;56035;37.534;-122.308;2023-03-23T09:14:45;8.63;;;1.73;;
68985;SDS011;56035;37.534;-122.308;2023-03-23T09:18:10;11.93;;;1.67;;
68985;SDS011;56035;37.534;-122.308;2023-03-23T09:21:35;7.33;;;1.77;;
68985;SDS011;56035;37.534;-122.308;2023-03-23T09:24:59;11.63;;;2.03;;
68985;SDS011;56035;37.534;-122.308;2023-03-23T09:28:28;10.53;;;2.23;;
68985;SDS011;56035;37.534;-122.308;2023-03-23T09:31:53;11.07;;;2.20;;
68985;SDS011;56035;37.534;-122.308;2023-03-23T09:35:19;10.47;;;1.57;;
68985;SDS011;56035;37.534;-122.308;2023-03-23T09:38:46;10.00;;;1.70;;
68985;SDS011;56035;37.534;-122.308;2023-03-23T09:53:13;10.33;;;2.10;;
68985;SDS011;56035;37.534;-122.308;2023-03-23T09:56:58;13.80;;;2.07;;
68985;SDS011;56035;37.534;-122.308;2023-03-23T10:04:45;12.83;;;2.70;;
68985;SDS011;56035;37.534;-122.308;2023-03-23T10:08:20;9.52;;;1.98;;
68985;SDS011;56035;37.534;-122.308;2023-03-23T10:12:07;12.27;;;2.27;;
68985;SDS011;56035;37.534;-122.308;2023-03-23T10:15:52;11.37;;;1.80;;
68985;SDS011;56035;37.534;-122.308;2023-03-23T10:23:14;14.18;;;2.25;;
68985;SDS011;56035;37.534;-122.308;2023-03-23T10:30:22;13.47;;;2.87;;
68985;SDS011;56035;37.534;-122.308;2023-03-23T10:34:02;10.13;;;1.73;;
68985;SDS011;56035;37.534;-122.308;2023-03-23T10:37:32;12.20;;;1.90;;
68985;SDS011;56035;37.534;-122.308;2023-03-23T10:41:12;14.13;;;2.07;;
68985;SDS011;56035;37.534;-122.308;2023-03-23T10:44:37;9.27;;;2.30;;
68985;SDS011;56035;37.534;-122.308;2023-03-23T10:51:35;11.23;;;1.35;;
68985;SDS011;56035;37.534;-122.308;2023-03-23T10:55:07;10.70;;;2.10;;
68985;SDS011;56035;37.534;-122.308;2023-03-23T10:58:44;10.17;;;1.80;;
68985;SDS011;56035;37.534;-122.308;2023-03-23T11:02:14;9.03;;;1.60;;
68985;SDS011;56035;37.534;-122.308;2023-03-23T11:05:53;9.18;;;1.70;;
68985;SDS011;56035;37.534;-122.308;2023-03-23T11:09:20;8.87;;;1.67;;
68985;SDS011;56035;37.534;-122.308;2023-03-23T11:12:49;19.90;;;2.42;;
68985;SDS011;56035;37.534;-122.308;2023-03-23T11:16:29;10.33;;;2.20;;
68985;SDS011;56035;37.534;-122.308;2023-03-23T11:19:54;12.73;;;2.67;;
68985;SDS011;56035;37.534;-122.308;2023-03-23T11:23:28;13.33;;;2.10;;
68985;SDS011;56035;37.534;-122.308;2023-03-23T11:26:55;13.20;;;2.10;;
68985;SDS011;56035;37.534;-122.308;2023-03-23T11:30:26;14.47;;;2.50;;
68985;SDS011;56035;37.534;-122.308;2023-03-23T11:40:54;7.13;;;1.50;;
68985;SDS011;56035;37.534;-122.308;2023-03-23T11:44:21;14.00;;;1.93;;
68985;SDS011;56035;37.534;-122.308;2023-03-23T11:51:59;11.47;;;1.63;;
68985;SDS011;56035;37.534;-122.308;2023-03-23T11:56:15;8.07;;;1.67;;
68985;SDS011;56035;37.534;-122.308;2023-03-23T11:59:43;8.10;;;1.73;;
68985;SDS011;56035;37.534;-122.308;2023-03-23T12:25:30;9.53;;;1.43;;
68985;SDS011;56035;37.534;-122.308;2023-03-23T12:40:40;9.73;;;1.70;;
68985;SDS011;56035;37.534;-122.308;2023-03-23T12:44:12;8.20;;;1.67;;
68985;SDS011;56035;37.534;-122.308;2023-03-23T12:47:45;12.53;;;2.33;;
68985;SDS011;56035;37.534;-122.308;2023-03-23T12:51:24;12.83;;;2.67;;
68985;SDS011;56035;37.534;-122.308;2023-03-23T12:55:01;12.57;;;1.90;;
68985;SDS011;56035;37.534;-122.308;2023-03-23T12:58:44;9.67;;;1.70;;
68985;SDS011;56035;37.534;-122.308;2023-03-23T13:02:29;9.20;;;1.60;;
68985;SDS011;56035;37.534;-122.308;2023-03-23T13:06:38;7.67;;;1.60;;
68985;SDS011;56035;37.534;-122.308;2023-03-23T13:09:50;10.37;;;1.77;;
68985;SDS011;56035;37.534;-122.308;2023-03-23T13:13:21;8.07;;;1.57;;
68985;SDS011;56035;37.534;-122.308;2023-03-23T13:17:04;6.70;;;1.30;;
68985;SDS011;56035;37.534;-122.308;2023-03-23T13:20:46;8.70;;;1.93;;
68985;SDS011;56035;37.534;-122.308;2023-03-23T13:24:23;8.37;;;1.57;;
68985;SDS011;56035;37.534;-122.308;2023-03-23T13:28:15;11.83;;;1.90;;
68985;SDS011;56035;37.534;-122.308;2023-03-23T13:31:49;8.93;;;1.83;;
68985;SDS011;56035;37.534;-122.308;2023-03-23T13:35:16;12.40;;;2.37;;
68985;SDS011;56035;37.534;-122.308;2023-03-23T13:38:47;9.27;;;1.60;;
68985;SDS011;56035;37.534;-122.308;2023-03-23T13:46:41;7.20;;;1.63;;
68985;SDS011;56035;37.534;-122.308;2023-03-23T13:50:02;9.27;;;1.80;;
68985;SDS011;56035;37.534;-122.308;2023-03-23T13:53:29;6.53;;;1.27;;
68985;SDS011;56035;37.534;-122.308;2023-03-23T13:57:24;10.70;;;1.93;;
68985;SDS011;56035;37.534;-122.308;2023-03-23T14:01:09;8.93;;;1.50;;
68985;SDS011;56035;37.534;-122.308;2023-03-23T14:04:53;9.10;;;1.80;;
68985;SDS011;56035;37.534;-122.308;2023-03-23T14:08:25;9.57;;;1.70;;
68985;SDS011;56035;37.534;-122.308;2023-03-23T14:15:54;11.67;;;1.40;;
68985;SDS011;56035;37.534;-122.308;2023-03-23T14:19:30;9.23;;;2.10;;
68985;SDS011;56035;37.534;-122.308;2023-03-23T14:22:58;8.43;;;1.20;;
68985;SDS011;56035;37.534;-122.308;2023-03-23T14:26:43;6.33;;;1.40;;
68985;SDS011;56035;37.534;-122.308;2023-03-23T14:30:13;6.97;;;1.20;;
68985;SDS011;56035;37.534;-122.308;2023-03-23T14:33:46;13.30;;;1.90;;
68985;SDS011;56035;37.534;-122.308;2023-03-23T14:37:13;5.67;;;1.30;;
68985;SDS011;56035;37.534;-122.308;2023-03-23T14:40:41;6.10;;;1.53;;
68985;SDS011;56035;37.534;-122.308;2023-03-23T14:44:10;8.80;;;1.77;;
68985;SDS011;56035;37.534;-122.308;2023-03-23T14:47:43;7.27;;;1.50;;
68985;SDS011;56035;37.534;-122.308;2023-03-23T14:51:15;6.72;;;1.30;;
68985;SDS011;56035;37.534;-122.308;2023-03-23T14:54:43;6.37;;;1.40;;
68985;SDS011;56035;37.534;-122.308;2023-03-23T14:58:12;7.87;;;2.03;;
68985;SDS011;56035;37.534;-122.308;2023-03-23T15:01:37;5.30;;;1.17;;
68985;SDS011;56035;37.534;-122.308;2023-03-23T15:08:33;6.17;;;1.17;;
68985;SDS011;56035;37.534;-122.308;2023-03-23T15:12:00;7.93;;;1.80;;
68985;SDS011;56035;37.534;-122.308;2023-03-23T15:18:59;7.40;;;1.60;;
68985;SDS011;56035;37.534;-122.308;2023-03-23T15:22:32;7.13;;;1.63;;
68985;SDS011;56035;37.534;-122.308;2023-03-23T15:25:57;8.50;;;1.80;;
68985;SDS011;56035;37.534;-122.308;2023-03-23T15:33:12;7.97;;;2.03;;
68985;SDS011;56035;37.534;-122.308;2023-03-23T15:36:51;8.17;;;1.60;;
68985;SDS011;56035;37.534;-122.308;2023-03-23T15:40:27;8.50;;;1.67;;
68985;SDS011;56035;37.534;-122.308;2023-03-23T15:43:57;6.67;;;1.40;;
68985;SDS011;56035;37.534;-122.308;2023-03-23T15:47:33;5.65;;;1.60;;
68985;SDS011;56035;37.534;-122.308;2023-03-23T15:51:10;10.33;;;2.33;;
68985;SDS011;56035;37.534;-122.308;2023-03-23T15:54:37;7.90;;;1.30;;
68985;SDS011;56035;37.534;-122.308;2023-03-23T15:58:12;6.93;;;1.40;;
68985;SDS011;56035;37.534;-122.308;2023-03-23T16:01:38;6.90;;;1.87;;
68985;SDS011;56035;37.534;-122.308;2023-03-23T16:05:04;8.23;;;1.43;;
68985;SDS011;56035;37.534;-122.308;2023-03-23T16:08:29;7.83;;;1.50;;
68985;SDS011;56035;37.534;-122.308;2023-03-23T16:11:54;11.53;;;1.50;;
68985;SDS011;56035;37.534;-122.308;2023-03-23T16:15:19;7.23;;;1.03;;
68985;SDS011;56035;37.534;-122.308;2023-03-23T16:18:46;8.23;;;1.20;;
68985;SDS011;56035;37.534;-122.308;2023-03-23T16:22:11;4.73;;;0.87;;
68985;SDS011;56035;37.534;-122.308;2023-03-23T16:25:36;7.20;;;1.40;;
68985;SDS011;56035;37.534;-122.308;2023-03-23T16:29:01;6.70;;;1.17;;
68985;SDS011;56035;37.534;-122.308;2023-03-23T16:32:28;4.53;;;0.90;;
68985;SDS011;56035;37.534;-122.308;2023-03-23T16:35:52;3.73;;;0.87;;
68985;SDS011;56035;37.534;-122.308;2023-03-23T16:39:17;4.77;;;1.10;;
68985;SDS011;56035;37.534;-122.308;2023-03-23T16:42:43;4.50;;;0.90;;
68985;SDS011;56035;37.534;-122.308;2023-03-23T16:46:08;3.87;;;1.33;;
68985;SDS011;56035;37.534;-122.308;2023-03-23T16:49:34;6.10;;;1.07;;
68985;SDS011;56035;37.534;-122.308;2023-03-23T16:53:00;8.10;;;1.40;;
68985;SDS011;56035;37.534;-122.308;2023-03-23T16:56:25;6.10;;;1.30;;
68985;SDS011;56035;37.534;-122.308;2023-03-23T16:59:50;6.10;;;1.10;;
68985;SDS011;56035;37.534;-122.308;2023-03-23T17:03:19;2.87;;;0.83;;
68985;SDS011;56035;37.534;-122.308;2023-03-23T17:06:44;4.80;;;1.30;;
68985;SDS011;56035;37.534;-122.308;2023-03-23T17:10:09;6.57;;;1.10;;
68985;SDS011;56035;37.534;-122.308;2023-03-23T17:13:35;7.00;;;1.17;;
68985;SDS011;56035;37.534;-122.308;2023-03-23T17:17:00;4.73;;;0.97;;
68985;SDS011;56035;37.534;-122.308;2023-03-23T17:20:26;7.10;;;1.43;;
68985;SDS011;56035;37.534;-122.308;2023-03-23T17:23:51;5.17;;;1.20;;
68985;SDS011;56035;37.534;-122.308;2023-03-23T17:27:16;5.33;;;1.03;;
68985;SDS011;56035;37.534;-122.308;2023-03-23T17:30:42;8.10;;;1.43;;
68985;SDS011;56035;37.534;-122.308;2023-03-23T17:34:07;8.00;;;1.40;;
68985;SDS011;56035;37.534;-122.308;2023-03-23T17:37:32;5.73;;;1.00;;
68985;SDS011;56035;37.534;-122.308;2023-03-23T17:40:58;7.70;;;1.47;;
68985;SDS011;56035;37.534;-122.308;2023-03-23T17:44:23;6.33;;;1.37;;
68985;SDS011;56035;37.534;-122.308;2023-03-23T17:47:48;6.47;;;1.20;;
68985;SDS011;56035;37.534;-122.308;2023-03-23T17:51:13;6.47;;;1.17;;
68985;SDS011;56035;37.534;-122.308;2023-03-23T17:54:38;6.97;;;1.30;;
68985;SDS011;56035;37.534;-122.308;2023-03-23T17:58:05;8.13;;;1.50;;
68985;SDS011;56035;37.534;-122.308;2023-03-23T18:01:30;7.03;;;1.50;;
68985;SDS011;56035;37.534;-122.308;2023-03-23T18:04:58;8.10;;;1.50;;
68985;SDS011;56035;37.534;-122.308;2023-03-23T18:08:26;5.13;;;1.13;;
68985;SDS011;56035;37.534;-122.308;2023-03-23T18:11:50;7.07;;;1.60;;
68985;SDS011;56035;37.534;-122.308;2023-03-23T18:15:16;6.97;;;1.50;;
68985;SDS011;56035;37.534;-122.308;2023-03-23T18:18:40;5.07;;;1.57;;
68985;SDS011;56035;37.534;-122.308;2023-03-23T18:22:05;6.30;;;1.50;;
68985;SDS011;56035;37.534;-122.308;2023-03-23T18:25:31;6.77;;;1.40;;
68985;SDS011;56035;37.534;-122.308;2023-03-23T18:28:56;4.00;;;1.10;;
68985;SDS011;56035;37.534;-122.308;2023-03-23T18:32:21;7.23;;;1.60;;
68985;SDS011;56035;37.534;-122.308;2023-03-23T18:35:46;6.90;;;1.35;;
68985;SDS011;56035;37.534;-122.308;2023-03-23T18:39:11;9.05;;;1.77;;
68985;SDS011;56035;37.534;-122.308;2023-03-23T18:42:37;4.88;;;1.20;;
68985;SDS011;56035;37.534;-122.308;2023-03-23T18:46:02;8.20;;;1.48;;
68985;SDS011;56035;37.534;-122.308;2023-03-23T18:49:27;6.57;;;1.20;;
68985;SDS011;56035;37.534;-122.308;2023-03-23T18:52:51;6.72;;;1.17;;
68985;SDS011;56035;37.534;-122.308;2023-03-23T18:56:16;4.28;;;1.35;;
68985;SDS011;56035;37.534;-122.308;2023-03-23T18:59:42;6.03;;;1.17;;
68985;SDS011;56035;37.534;-122.308;2023-03-23T19:03:07;4.25;;;1.10;;
68985;SDS011;56035;37.534;-122.308;2023-03-23T19:06:32;5.75;;;1.10;;
68985;SDS011;56035;37.534;-122.308;2023-03-23T19:09:57;4.22;;;1.00;;
68985;SDS011;56035;37.534;-122.308;2023-03-23T19:13:27;4.20;;;1.10;;
68985;SDS011;56035;37.534;-122.308;2023-03-23T19:16:52;3.20;;;0.80;;
68985;SDS011;56035;37.534;-122.308;2023-03-23T19:20:21;5.78;;;1.00;;
68985;SDS011;56035;37.534;-122.308;2023-03-23T19:23:46;2.72;;;0.98;;
68985;SDS011;56035;37.534;-122.308;2023-03-23T19:27:10;4.65;;;0.70;;
68985;SDS011;56035;37.534;-122.308;2023-03-23T19:30:35;3.55;;;0.90;;
68985;SDS011;56035;37.534;-122.308;2023-03-23T19:34:00;7.20;;;1.40;;
68985;SDS011;56035;37.534;-122.308;2023-03-23T19:37:25;4.75;;;1.02;;
68985;SDS011;56035;37.534;-122.308;2023-03-23T19:40:53;6.20;;;1.33;;
68985;SDS011;56035;37.534;-122.308;2023-03-23T19:44:20;4.95;;;1.15;;
68985;SDS011;56035;37.534;-122.308;2023-03-23T19:47:44;6.38;;;1.17;;
68985;SDS011;56035;37.534;-122.308;2023-03-23T19:51:11;6.28;;;1.10;;
68985;SDS011;56035;37.534;-122.308;2023-03-23T19:54:36;6.28;;;1.48;;
68985;SDS011;56035;37.534;-122.308;2023-03-23T19:58:01;5.70;;;1.40;;
68985;SDS011;56035;37.534;-122.308;2023-03-23T20:01:26;4.90;;;1.50;;
68985;SDS011;56035;37.534;-122.308;2023-03-23T20:04:51;5.35;;;1.17;;
68985;SDS011;56035;37.534;-122.308;2023-03-23T20:08:15;8.35;;;2.20;;
68985;SDS011;56035;37.534;-122.308;2023-03-23T20:11:41;5.53;;;1.27;;
68985;SDS011;56035;37.534;-122.308;2023-03-23T20:15:06;4.50;;;1.45;;
68985;SDS011;56035;37.534;-122.308;2023-03-23T20:18:31;8.65;;;1.50;;
68985;SDS011;56035;37.534;-122.308;2023-03-23T20:21:56;6.20;;;1.40;;
68985;SDS011;56035;37.534;-122.308;2023-03-23T20:25:22;5.57;;;1.20;;
68985;SDS011;56035;37.534;-122.308;2023-03-23T20:28:49;6.40;;;1.88;;
68985;SDS011;56035;37.534;-122.308;2023-03-23T20:32:14;7.88;;;1.42;;
68985;SDS011;56035;37.534;-122.308;2023-03-23T20:35:41;7.38;;;1.38;;
68985;SDS011;56035;37.534;-122.308;2023-03-23T20:39:11;8.37;;;1.83;;
68985;SDS011;56035;37.534;-122.308;2023-03-23T20:42:40;6.40;;;1.10;;
68985;SDS011;56035;37.534;-122.308;2023-03-23T20:46:06;7.60;;;1.10;;
68985;SDS011;56035;37.534;-122.308;2023-03-23T20:49:33;10.67;;;1.83;;
68985;SDS011;56035;37.534;-122.308;2023-03-23T20:52:58;6.87;;;1.83;;
68985;SDS011;56035;37.534;-122.308;2023-03-23T20:56:23;7.57;;;1.73;;
68985;SDS011;56035;37.534;-122.308;2023-03-23T21:00:08;7.43;;;1.53;;
68985;SDS011;56035;37.534;-122.308;2023-03-23T21:03:38;5.35;;;1.10;;
68985;SDS011;56035;37.534;-122.308;2023-03-23T21:07:04;8.73;;;2.10;;
68985;SDS011;56035;37.534;-122.308;2023-03-23T21:10:29;6.23;;;1.10;;
68985;SDS011;56035;37.534;-122.308;2023-03-23T21:13:54;7.43;;;1.58;;
68985;SDS011;56035;37.534;-122.308;2023-03-23T21:17:19;7.00;;;1.58;;
68985;SDS011;56035;37.534;-122.308;2023-03-23T21:20:44;9.70;;;1.60;;
68985;SDS011;56035;37.534;-122.308;2023-03-23T21:24:10;6.20;;;1.20;;
68985;SDS011;56035;37.534;-122.308;2023-03-23T21:27:35;5.83;;;1.73;;
68985;SDS011;56035;37.534;-122.308;2023-03-23T21:31:00;6.43;;;1.60;;
68985;SDS011;56035;37.534;-122.308;2023-03-23T21:34:25;7.73;;;1.60;;
68985;SDS011;56035;37.534;-122.308;2023-03-23T21:37:50;5.50;;;1.03;;
68985;SDS011;56035;37.534;-122.308;2023-03-23T21:41:15;7.57;;;1.20;;